Time,TemperatureF,DewpointF,PressureIn,WindDirection,WindDirectionDegrees,WindSpeedMPH,WindSpeedGustMPH,Humidity,HourlyPrecipIn,Conditions,Clouds,dailyrainin,SoftwareType,DateUTC
2013-01-17 00:02:00,31.0,-48.0,30.25,NNE,22,7.0,10.0,2,0.00,,,0.00,,2013-01-17 06:02:00,
2013-01-17 00:12:00,31.0,-48.0,30.25,NNE,27,10.0,13.0,2,0.00,,,0.00,,2013-01-17 06:12:00,
2013-01-17 00:22:00,31.0,-48.0,30.25,NNE,27,10.0,13.0,2,0.00,,,0.00,,2013-01-17 06:22:00,
2013-01-17 00:32:00,30.0,-48.0,30.26,NNE,20,10.0,12.0,2,0.00,,,0.00,,2013-01-17 06:32:00,
2013-01-17 00:42:00,30.0,-48.0,30.26,NNE,20,10.0,12.0,2,0.00,,,0.00,,2013-01-17 06:42:00,
2013-01-17 00:52:00,30.0,-48.0,30.27,North,5,8.0,10.0,2,0.00,,,0.00,,2013-01-17 06:52:00,
2013-01-17 01:02:00,30.0,-48.0,30.28,NNE,16,7.0,9.0,2,0.00,,,0.00,,2013-01-17 07:02:00,
2013-01-17 01:12:00,30.0,-48.0,30.28,NNE,16,7.0,9.0,2,0.00,,,0.00,,2013-01-17 07:12:00,
2013-01-17 01:22:00,29.0,-49.0,30.30,North,352,8.0,9.0,2,0.00,,,0.00,,2013-01-17 07:22:00,
2013-01-17 01:32:00,29.0,-49.0,30.30,North,353,7.0,7.0,2,0.00,,,0.00,,2013-01-17 07:32:00,
2013-01-17 01:42:00,29.0,-49.0,30.30,North,353,7.0,7.0,2,0.00,,,0.00,,2013-01-17 07:42:00,
2013-01-17 01:52:00,28.0,-50.0,30.32,NNW,339,7.0,10.0,2,0.00,,,0.00,,2013-01-17 07:52:00,
2013-01-17 02:02:00,28.0,-50.0,30.33,NNW,345,7.0,9.0,2,0.00,,,0.00,,2013-01-17 08:02:00,
2013-01-17 02:12:00,28.0,-50.0,30.33,NNW,345,7.0,9.0,2,0.00,,,0.00,,2013-01-17 08:12:00,
2013-01-17 02:22:00,28.0,-50.0,30.33,North,357,5.0,7.0,2,0.00,,,0.00,,2013-01-17 08:22:00,
2013-01-17 02:32:00,27.0,-50.0,30.33,NNW,338,7.0,9.0,2,0.00,,,0.00,,2013-01-17 08:32:00,
2013-01-17 02:43:00,27.0,-50.0,30.33,NNW,338,7.0,9.0,2,0.00,,,0.00,,2013-01-17 08:43:00,
2013-01-17 02:53:00,27.0,-50.0,30.34,NNW,332,8.0,9.0,2,0.00,,,0.00,,2013-01-17 08:53:00,
2013-01-17 03:02:00,26.0,-51.0,30.34,NNW,342,7.0,8.0,2,0.00,,,0.00,,2013-01-17 09:02:00,
2013-01-17 03:12:00,26.0,-51.0,30.34,NNW,342,7.0,8.0,2,0.00,,,0.00,,2013-01-17 09:12:00,
2013-01-17 03:22:00,26.0,-51.0,30.36,NNW,339,6.0,8.0,2,0.00,,,0.00,,2013-01-17 09:22:00,
2013-01-17 03:32:00,26.0,-51.0,30.36,NNW,346,4.0,5.0,2,0.00,,,0.00,,2013-01-17 09:32:00,
2013-01-17 03:42:00,26.0,-51.0,30.36,NNW,346,4.0,5.0,2,0.00,,,0.00,,2013-01-17 09:42:00,
2013-01-17 03:52:00,26.0,-51.0,30.37,NNW,332,4.0,6.0,2,0.00,,,0.00,,2013-01-17 09:52:00,
2013-01-17 04:02:00,26.0,-51.0,30.36,NNW,345,5.0,5.0,2,0.00,,,0.00,,2013-01-17 10:02:00,
2013-01-17 04:12:00,26.0,-51.0,30.36,NNW,345,5.0,5.0,2,0.00,,,0.00,,2013-01-17 10:12:00,
2013-01-17 04:22:00,26.0,-51.0,30.36,NW,325,5.0,6.0,2,0.00,,,0.00,,2013-01-17 10:22:00,
2013-01-17 04:32:00,26.0,-51.0,30.36,North,351,5.0,6.0,2,0.00,,,0.00,,2013-01-17 10:32:00,
2013-01-17 04:42:00,26.0,-51.0,30.36,North,351,5.0,6.0,2,0.00,,,0.00,,2013-01-17 10:42:00,
2013-01-17 04:53:00,26.0,-51.0,30.37,NNW,344,3.0,5.0,2,0.00,,,0.00,,2013-01-17 10:53:00,
2013-01-17 05:02:00,25.0,-52.0,30.38,North,349,5.0,7.0,2,0.00,,,0.00,,2013-01-17 11:02:00,
2013-01-17 05:12:00,25.0,-52.0,30.38,North,349,5.0,7.0,2,0.00,,,0.00,,2013-01-17 11:12:00,
2013-01-17 05:22:00,25.0,-52.0,30.37,NNW,332,1.0,1.0,2,0.00,,,0.00,,2013-01-17 11:22:00,
2013-01-17 05:32:00,25.0,-52.0,30.38,NNW,330,0.0,0.0,2,0.00,,,0.00,,2013-01-17 11:32:00,
2013-01-17 05:42:00,25.0,-52.0,30.38,NNW,330,0.0,0.0,2,0.00,,,0.00,,2013-01-17 11:42:00,
2013-01-17 05:53:00,24.0,-52.0,30.39,NNE,20,4.0,4.0,2,0.00,,,0.00,,2013-01-17 11:53:00,
2013-01-17 06:02:00,23.0,-53.0,30.39,North,4,5.0,5.0,2,0.00,,,0.00,,2013-01-17 12:02:00,
2013-01-17 06:12:00,23.0,-53.0,30.39,North,4,5.0,5.0,2,0.00,,,0.00,,2013-01-17 12:12:00,
2013-01-17 06:22:00,24.0,-52.0,30.39,NNW,346,4.0,4.0,2,0.00,,,0.00,,2013-01-17 12:22:00,
2013-01-17 06:32:00,24.0,-52.0,30.40,NW,320,0.0,0.0,2,0.00,,,0.00,,2013-01-17 12:32:00,
2013-01-17 06:42:00,24.0,-52.0,30.40,NW,320,0.0,0.0,2,0.00,,,0.00,,2013-01-17 12:42:00,
2013-01-17 06:53:00,23.0,-53.0,30.40,West,276,3.0,4.0,2,0.00,,,0.00,,2013-01-17 12:53:00,
2013-01-17 07:03:00,23.0,-53.0,30.39,West,259,3.0,4.0,2,0.00,,,0.00,,2013-01-17 13:03:00,
2013-01-17 07:12:00,23.0,-53.0,30.39,West,259,3.0,4.0,2,0.00,,,0.00,,2013-01-17 13:12:00,
2013-01-17 07:22:00,23.0,-53.0,30.40,WSW,246,4.0,5.0,2,0.00,,,0.00,,2013-01-17 13:22:00,
2013-01-17 07:33:00,23.0,-53.0,30.40,SW,229,1.0,2.0,2,0.00,,,0.00,,2013-01-17 13:33:00,
2013-01-17 07:43:00,23.0,-53.0,30.41,NE,45,4.0,4.0,2,0.00,,,0.00,,2013-01-17 13:43:00,
2013-01-17 07:53:00,23.0,-53.0,30.41,NE,45,4.0,4.0,2,0.00,,,0.00,,2013-01-17 13:53:00,
2013-01-17 08:03:00,22.0,-54.0,30.42,ENE,65,3.0,3.0,2,0.00,,,0.00,,2013-01-17 14:03:00,
2013-01-17 08:12:00,22.0,-54.0,30.42,ENE,65,3.0,3.0,2,0.00,,,0.00,,2013-01-17 14:12:00,
2013-01-17 08:23:00,22.0,-54.0,30.42,ENE,58,0.0,0.0,2,0.00,,,0.00,,2013-01-17 14:23:00,
2013-01-17 08:33:00,22.0,-54.0,30.43,NE,51,0.0,0.0,2,0.00,,,0.00,,2013-01-17 14:33:00,
2013-01-17 08:42:00,22.0,-54.0,30.43,NE,51,0.0,0.0,2,0.00,,,0.00,,2013-01-17 14:42:00,
2013-01-17 08:53:00,23.0,-53.0,30.43,North,0,0.0,0.0,2,0.00,,,0.00,,2013-01-17 14:53:00,
2013-01-17 09:03:00,24.0,-52.0,30.43,North,0,0.0,0.0,2,0.00,,,0.00,,2013-01-17 15:03:00,
2013-01-17 09:12:00,24.0,-52.0,30.43,North,0,0.0,0.0,2,0.00,,,0.00,,2013-01-17 15:12:00,
2013-01-17 09:22:00,25.0,-52.0,30.44,NNE,33,3.0,5.0,2,0.00,,,0.00,,2013-01-17 15:22:00,
2013-01-17 09:33:00,26.0,-51.0,30.45,NNE,16,2.0,4.0,2,0.00,,,0.00,,2013-01-17 15:33:00,
2013-01-17 09:43:00,26.0,-51.0,30.45,NNE,16,2.0,4.0,2,0.00,,,0.00,,2013-01-17 15:43:00,
2013-01-17 09:53:00,26.0,-51.0,30.46,North,4,4.0,5.0,2,0.00,,,0.00,,2013-01-17 15:53:00,
2013-01-17 10:02:00,26.0,-51.0,30.46,WNW,286,1.0,3.0,2,0.00,,,0.00,,2013-01-17 16:02:00,
2013-01-17 10:12:00,26.0,-51.0,30.46,WNW,286,1.0,3.0,2,0.00,,,0.00,,2013-01-17 16:12:00,
2013-01-17 10:22:00,26.0,-51.0,30.47,NNW,327,3.0,3.0,2,0.00,,,0.00,,2013-01-17 16:22:00,
2013-01-17 10:33:00,26.0,-51.0,30.47,WNW,287,0.0,0.0,2,0.00,,,0.00,,2013-01-17 16:33:00,
2013-01-17 10:43:00,26.0,-51.0,30.47,WNW,287,0.0,0.0,2,0.00,,,0.00,,2013-01-17 16:43:00,
2013-01-17 10:53:00,27.0,-50.0,30.47,SW,219,0.0,0.0,2,0.00,,,0.00,,2013-01-17 16:53:00,
2013-01-17 11:03:00,28.0,-50.0,30.47,West,278,3.0,4.0,2,0.00,,,0.00,,2013-01-17 17:03:00,
2013-01-17 11:12:00,28.0,-50.0,30.47,West,278,3.0,4.0,2,0.00,,,0.00,,2013-01-17 17:12:00,
2013-01-17 11:22:00,29.0,-49.0,30.45,WSW,245,8.0,9.0,2,0.00,,,0.00,,2013-01-17 17:22:00,
2013-01-17 11:33:00,29.0,-49.0,30.46,West,264,5.0,8.0,2,0.00,,,0.00,,2013-01-17 17:33:00,
2013-01-17 11:43:00,29.0,-49.0,30.46,West,264,5.0,8.0,2,0.00,,,0.00,,2013-01-17 17:43:00,
2013-01-17 11:53:00,29.0,-49.0,30.47,WNW,298,5.0,7.0,2,0.00,,,0.00,,2013-01-17 17:53:00,
2013-01-17 12:03:00,29.0,-49.0,30.46,West,269,7.0,9.0,2,0.00,,,0.00,,2013-01-17 18:03:00,
2013-01-17 12:12:00,29.0,-49.0,30.46,West,269,7.0,9.0,2,0.00,,,0.00,,2013-01-17 18:12:00,
2013-01-17 12:22:00,29.0,-49.0,30.45,WSW,242,7.0,9.0,2,0.00,,,0.00,,2013-01-17 18:22:00,
2013-01-17 12:33:00,29.0,-49.0,30.45,WNW,287,3.0,4.0,2,0.00,,,0.00,,2013-01-17 18:33:00,
2013-01-17 12:43:00,29.0,-49.0,30.45,WNW,287,3.0,4.0,2,0.00,,,0.00,,2013-01-17 18:43:00,
2013-01-17 12:53:00,29.0,-49.0,30.45,WNW,300,4.0,4.0,2,0.00,,,0.00,,2013-01-17 18:53:00,
2013-01-17 13:03:00,29.0,-49.0,30.44,West,277,4.0,7.0,2,0.00,,,0.00,,2013-01-17 19:03:00,
2013-01-17 13:12:00,29.0,-49.0,30.44,West,277,4.0,7.0,2,0.00,,,0.00,,2013-01-17 19:12:00,
2013-01-17 13:22:00,30.0,-48.0,30.44,NW,311,5.0,7.0,2,0.00,,,0.00,,2013-01-17 19:22:00,
2013-01-17 13:33:00,29.0,-49.0,30.43,West,278,3.0,6.0,2,0.00,,,0.00,,2013-01-17 19:33:00,
2013-01-17 13:42:00,29.0,-49.0,30.43,West,278,3.0,6.0,2,0.00,,,0.00,,2013-01-17 19:42:00,
2013-01-17 13:53:00,30.0,-48.0,30.42,WSW,251,6.0,8.0,2,0.00,,,0.00,,2013-01-17 19:53:00,
2013-01-17 14:02:00,31.0,-48.0,30.41,WSW,238,6.0,8.0,2,0.00,,,0.00,,2013-01-17 20:02:00,
2013-01-17 14:12:00,31.0,-48.0,30.41,WSW,238,6.0,8.0,2,0.00,,,0.00,,2013-01-17 20:12:00,
2013-01-17 14:23:00,32.0,-47.0,30.41,West,260,5.0,7.0,2,0.00,,,0.00,,2013-01-17 20:23:00,
2013-01-17 14:33:00,32.0,-47.0,30.41,WNW,283,4.0,5.0,2,0.00,,,0.00,,2013-01-17 20:33:00,
2013-01-17 14:43:00,32.0,-47.0,30.41,WNW,283,4.0,5.0,2,0.00,,,0.00,,2013-01-17 20:43:00,
2013-01-17 14:54:00,32.0,-47.0,30.41,WNW,295,3.0,4.0,2,0.00,,,0.00,,2013-01-17 20:54:00,
2013-01-17 15:03:00,32.0,-47.0,30.40,WSW,245,4.0,6.0,2,0.00,,,0.00,,2013-01-17 21:03:00,
2013-01-17 15:12:00,32.0,-47.0,30.40,WSW,245,4.0,6.0,2,0.00,,,0.00,,2013-01-17 21:12:00,
2013-01-17 15:23:00,32.0,-47.0,30.41,WSW,240,0.0,0.0,2,0.00,,,0.00,,2013-01-17 21:23:00,
2013-01-17 15:33:00,32.0,-47.0,30.40,WSW,256,6.0,8.0,2,0.00,,,0.00,,2013-01-17 21:33:00,
2013-01-17 15:42:00,32.0,-47.0,30.40,WSW,256,6.0,8.0,2,0.00,,,0.00,,2013-01-17 21:42:00,
2013-01-17 15:53:00,32.0,-47.0,30.40,SW,229,5.0,6.0,2,0.00,,,0.00,,2013-01-17 21:53:00,
2013-01-17 16:03:00,32.0,-47.0,30.40,WSW,257,4.0,6.0,2,0.00,,,0.00,,2013-01-17 22:03:00,
2013-01-17 16:12:00,32.0,-47.0,30.40,WSW,257,4.0,6.0,2,0.00,,,0.00,,2013-01-17 22:12:00,
2013-01-17 16:23:00,33.0,-46.0,30.40,SW,231,6.0,7.0,2,0.00,,,0.00,,2013-01-17 22:23:00,
2013-01-17 16:33:00,33.0,-46.0,30.40,SSW,212,7.0,9.0,2,0.00,,,0.00,,2013-01-17 22:33:00,
2013-01-17 16:42:00,33.0,-46.0,30.40,SSW,212,7.0,9.0,2,0.00,,,0.00,,2013-01-17 22:42:00,
2013-01-17 16:53:00,32.0,-47.0,30.40,WSW,256,5.0,6.0,2,0.00,,,0.00,,2013-01-17 22:53:00,
2013-01-17 17:02:00,32.0,-47.0,30.40,SW,227,3.0,3.0,2,0.00,,,0.00,,2013-01-17 23:02:00,
2013-01-17 17:12:00,32.0,-47.0,30.40,SW,227,3.0,3.0,2,0.00,,,0.00,,2013-01-17 23:12:00,
2013-01-17 17:22:00,32.0,-47.0,30.40,West,279,1.0,1.0,2,0.00,,,0.00,,2013-01-17 23:22:00,
2013-01-17 17:32:00,31.0,-48.0,30.40,West,267,3.0,4.0,2,0.00,,,0.00,,2013-01-17 23:32:00,
2013-01-17 17:42:00,31.0,-48.0,30.40,West,267,3.0,4.0,2,0.00,,,0.00,,2013-01-17 23:42:00,
2013-01-17 17:53:00,31.0,-48.0,30.40,WSW,247,3.0,3.0,2,0.00,,,0.00,,2013-01-17 23:53:00,
2013-01-17 18:02:00,30.0,-48.0,30.39,WSW,238,4.0,4.0,2,0.00,,,0.00,,2013-01-18 00:02:00,
2013-01-17 18:12:00,30.0,-48.0,30.39,WSW,238,4.0,4.0,2,0.00,,,0.00,,2013-01-18 00:12:00,
2013-01-17 18:23:00,30.0,-48.0,30.38,SW,234,2.0,3.0,2,0.00,,,0.00,,2013-01-18 00:23:00,
2013-01-17 18:32:00,30.0,-48.0,30.38,SW,234,2.0,3.0,2,0.00,,,0.00,,2013-01-18 00:32:00,
2013-01-17 18:42:00,30.0,-48.0,30.38,SSW,212,0.0,0.0,2,0.00,,,0.00,,2013-01-18 00:42:00,
2013-01-17 18:53:00,29.0,-49.0,30.37,SSW,212,0.0,0.0,2,0.00,,,0.00,,2013-01-18 00:53:00,
2013-01-17 19:02:00,29.0,-49.0,30.37,SSW,212,0.0,0.0,2,0.00,,,0.00,,2013-01-18 01:02:00,
2013-01-17 19:12:00,29.0,-49.0,30.37,SSW,212,0.0,0.0,2,0.00,,,0.00,,2013-01-18 01:12:00,
2013-01-17 19:22:00,28.0,-50.0,30.37,SSW,212,0.0,0.0,2,0.00,,,0.00,,2013-01-18 01:22:00,
2013-01-17 19:33:00,27.0,-50.0,30.37,SSW,212,0.0,0.0,2,0.00,,,0.00,,2013-01-18 01:33:00,
2013-01-17 19:42:00,27.0,-50.0,30.37,SSW,212,0.0,0.0,2,0.00,,,0.00,,2013-01-18 01:42:00,
2013-01-17 19:53:00,26.0,-51.0,30.36,ENE,74,3.0,4.0,2,0.00,,,0.00,,2013-01-18 01:53:00,
2013-01-17 20:02:00,26.0,-51.0,30.36,East,89,0.0,0.0,2,0.00,,,0.00,,2013-01-18 02:02:00,
2013-01-17 20:12:00,26.0,-51.0,30.36,East,89,0.0,0.0,2,0.00,,,0.00,,2013-01-18 02:12:00,
2013-01-17 20:22:00,26.0,-51.0,30.36,East,89,0.0,0.0,2,0.00,,,0.00,,2013-01-18 02:22:00,
2013-01-17 20:32:00,26.0,-51.0,30.35,SSW,212,4.0,5.0,2,0.00,,,0.00,,2013-01-18 02:32:00,
2013-01-17 20:42:00,26.0,-51.0,30.35,SSW,212,4.0,5.0,2,0.00,,,0.00,,2013-01-18 02:42:00,
2013-01-17 20:53:00,28.0,-50.0,30.35,SSW,199,4.0,6.0,2,0.00,,,0.00,,2013-01-18 02:53:00,
2013-01-17 21:02:00,29.0,-49.0,30.35,South,178,3.0,4.0,2,0.00,,,0.00,,2013-01-18 03:02:00,
2013-01-17 21:12:00,29.0,-49.0,30.35,South,178,3.0,4.0,2,0.00,,,0.00,,2013-01-18 03:12:00,
2013-01-17 21:22:00,29.0,-49.0,30.34,SSW,197,4.0,5.0,2,0.00,,,0.00,,2013-01-18 03:22:00,
2013-01-17 21:33:00,29.0,-49.0,30.34,SSW,205,5.0,6.0,2,0.00,,,0.00,,2013-01-18 03:33:00,
2013-01-17 21:42:00,29.0,-49.0,30.34,SSW,205,5.0,6.0,2,0.00,,,0.00,,2013-01-18 03:42:00,
2013-01-17 21:53:00,29.0,-49.0,30.33,SSW,195,3.0,4.0,2,0.00,,,0.00,,2013-01-18 03:53:00,
2013-01-17 22:02:00,29.0,-49.0,30.32,South,181,3.0,4.0,2,0.00,,,0.00,,2013-01-18 04:02:00,
2013-01-17 22:12:00,29.0,-49.0,30.32,South,181,3.0,4.0,2,0.00,,,0.00,,2013-01-18 04:12:00,
2013-01-17 22:22:00,29.0,-49.0,30.32,SSW,202,5.0,6.0,2,0.00,,,0.00,,2013-01-18 04:22:00,
2013-01-17 22:32:00,29.0,-49.0,30.31,SSW,205,5.0,6.0,2,0.00,,,0.00,,2013-01-18 04:32:00,
2013-01-17 22:42:00,29.0,-49.0,30.31,SSW,205,5.0,6.0,2,0.00,,,0.00,,2013-01-18 04:42:00,
2013-01-17 22:53:00,31.0,-48.0,30.30,SSW,204,6.0,7.0,2,0.00,,,0.00,,2013-01-18 04:53:00,
2013-01-17 23:03:00,31.0,-48.0,30.30,SSW,199,6.0,9.0,2,0.00,,,0.00,,2013-01-18 05:03:00,
2013-01-17 23:12:00,31.0,-48.0,30.30,SSW,199,6.0,9.0,2,0.00,,,0.00,,2013-01-18 05:12:00,
2013-01-17 23:22:00,32.0,-47.0,30.30,SSW,199,7.0,10.0,2,0.00,,,0.00,,2013-01-18 05:22:00,
2013-01-17 23:33:00,32.0,-47.0,30.30,SSW,195,8.0,12.0,2,0.00,,,0.00,,2013-01-18 05:33:00,
2013-01-17 23:42:00,32.0,-47.0,30.30,SSW,195,8.0,12.0,2,0.00,,,0.00,,2013-01-18 05:42:00,
2013-01-17 23:53:00,32.0,-47.0,30.30,SSW,206,6.0,9.0,2,0.00,,,0.00,,2013-01-18 05:53:00,